Airfield :
LOGIN :

Register | Disclaimer

   EN    FR    IT 

 










Legend :    VFR   Marginal VFR   IFR   Intensive IFR   Very Intensive IFR
Visi :
Ceiling :
>= 8 km
>= 3000ft
5 to 8 km
1000 to 3000 ft
1500m to 5 km
500 to 1000 ft
800 to 1500m
200 to 500 ft
< 800m
< 200 ft
Symbols :   Thunderstorms  Fog  Heavy snow  Heavy precipitations  Wind > 20 kt
SIGMETs :     Misc.  Thunderstorms  Icing  Turbulence  Mountain Waves  Volcanic Ashes







- Airport Elevation : 776 ft
- IATA code : RMS


ETAR - Ramstein Air Base

CURRENT METAR :
  • 231506Z 30006KT 9999 BKN019 BKN023 OVC060 12/08 A3018 RMK AO2A SLP226 $

EXPIRED METARs :
  • 231456Z 31008KT 9999 BKN021 OVC060 12/08 A3017 RMK AO2A CIG 021V060 BKN V SCT SLP223 T01160083 52003 $
  • 231356Z 30010KT 9999 BKN060 12/08 A3017 RMK AO2A SLP223 T01180081 $
  • 231326Z 30010KT 9999 SCT026 BKN065 12/08 A3017 RMK AO2A SLP223 $
  • 231256Z 31009KT 9999 BKN024 OVC065 12/07 A3017 RMK AO2A SLP223 T01150074 $
  • 231246Z 31011KT 9999 BKN024 BKN036 OVC065 12/07 A3017 RMK AO2A SLP223 $
  • 231236Z 31011G17KT 9999 SCT024 BKN036 BKN060 12/07 A3017 RMK AO2A SLP223 $
  • 231226Z 31009KT 9999 BKN025 BKN034 BKN060 11/07 A3017 RMK AO2A CIG 025V060 SLP224 $

TAF TAF ETAR
Valid from the 23 at 10:00 until the 24 at 16:00 UTC


231004Z 2310/2416 29010G15KT 9999 BKN020 620507 QNH3013INS
TEMPO 2310/2318 25012G20KT
BECMG 2317/2318 26010KT 9999 OVC020 620606 QNH3018INS
BECMG 2322/2323 23010KT 8000 -RA OVC015 620804 QNH3020INS
TEMPO 2408/2410 OVC010
BECMG 2412/2413 22010KT 6000 -RA BR OVC013 QNH3025INS TX13/2312Z TN08/2403Z
No reported NOTAMs for that airfield.



MET'MAP, your aeronautical weather chart ! - Copyright ORBIFLY December 2007 - Disclaimer

ORBIFLY MET'MAP TEAM :

Programming & Development : Alexandra Zaïnal
Concept & Development : Baudouin d'Aumeries
Co-Development & Prog : Marc-Olivier Méhu
Technical & hardware support : Manuel Goepfert

Contact : metmap@orbifly.com




SOURCES & CREDITS :

   NOAA